sensor_id;sensor_type;location;lat;lon;timestamp;temperature;humidity
78315;SHT31;68596;52.080;4.662;2023-07-31T00:02:33;19.90;77.85
78315;SHT31;68596;52.080;4.662;2023-07-31T00:05:17;19.90;77.57
78315;SHT31;68596;52.080;4.662;2023-07-31T00:08:01;19.93;77.48
78315;SHT31;68596;52.080;4.662;2023-07-31T00:10:45;19.95;77.64
78315;SHT31;68596;52.080;4.662;2023-07-31T00:13:29;19.96;77.76
78315;SHT31;68596;52.080;4.662;2023-07-31T00:16:13;19.96;77.47
78315;SHT31;68596;52.080;4.662;2023-07-31T00:18:58;19.98;77.71
78315;SHT31;68596;52.080;4.662;2023-07-31T00:21:42;19.99;77.70
78315;SHT31;68596;52.080;4.662;2023-07-31T00:24:26;19.99;77.52
78315;SHT31;68596;52.080;4.662;2023-07-31T00:27:10;19.98;77.53
78315;SHT31;68596;52.080;4.662;2023-07-31T00:29:54;20.02;77.60
78315;SHT31;68596;52.080;4.662;2023-07-31T00:32:38;19.99;77.70
78315;SHT31;68596;52.080;4.662;2023-07-31T00:35:22;20.02;77.85
78315;SHT31;68596;52.080;4.662;2023-07-31T00:38:06;19.98;77.60
78315;SHT31;68596;52.080;4.662;2023-07-31T00:40:50;19.99;77.64
78315;SHT31;68596;52.080;4.662;2023-07-31T00:43:34;19.98;77.64
78315;SHT31;68596;52.080;4.662;2023-07-31T00:46:20;20.00;77.83
78315;SHT31;68596;52.080;4.662;2023-07-31T00:49:05;20.00;77.65
78315;SHT31;68596;52.080;4.662;2023-07-31T00:51:50;19.99;77.95
78315;SHT31;68596;52.080;4.662;2023-07-31T00:54:34;20.02;77.78
78315;SHT31;68596;52.080;4.662;2023-07-31T00:57:18;20.02;77.61
78315;SHT31;68596;52.080;4.662;2023-07-31T01:00:03;19.96;77.75
78315;SHT31;68596;52.080;4.662;2023-07-31T01:02:50;19.99;77.84
78315;SHT31;68596;52.080;4.662;2023-07-31T01:05:49;19.96;77.58
78315;SHT31;68596;52.080;4.662;2023-07-31T01:09:04;19.98;77.54
78315;SHT31;68596;52.080;4.662;2023-07-31T01:11:53;19.98;77.65
78315;SHT31;68596;52.080;4.662;2023-07-31T01:14:38;19.98;77.87
78315;SHT31;68596;52.080;4.662;2023-07-31T01:17:22;19.99;77.51
78315;SHT31;68596;52.080;4.662;2023-07-31T01:20:18;19.99;77.64
78315;SHT31;68596;52.080;4.662;2023-07-31T01:23:35;19.98;77.61
78315;SHT31;68596;52.080;4.662;2023-07-31T01:26:30;19.96;77.84
78315;SHT31;68596;52.080;4.662;2023-07-31T01:29:34;19.99;77.71
78315;SHT31;68596;52.080;4.662;2023-07-31T01:32:22;19.93;77.28
78315;SHT31;68596;52.080;4.662;2023-07-31T01:35:07;19.93;77.40
78315;SHT31;68596;52.080;4.662;2023-07-31T01:37:52;19.92;77.39
78315;SHT31;68596;52.080;4.662;2023-07-31T01:40:41;19.93;77.39
78315;SHT31;68596;52.080;4.662;2023-07-31T01:43:26;19.93;77.30
78315;SHT31;68596;52.080;4.662;2023-07-31T01:46:09;19.90;77.34
78315;SHT31;68596;52.080;4.662;2023-07-31T01:48:53;19.90;77.45
78315;SHT31;68596;52.080;4.662;2023-07-31T01:51:37;19.90;77.30
78315;SHT31;68596;52.080;4.662;2023-07-31T01:54:22;19.92;77.22
78315;SHT31;68596;52.080;4.662;2023-07-31T01:57:06;19.92;77.35
78315;SHT31;68596;52.080;4.662;2023-07-31T01:59:50;19.92;77.51
78315;SHT31;68596;52.080;4.662;2023-07-31T02:02:34;19.90;77.51
78315;SHT31;68596;52.080;4.662;2023-07-31T02:05:18;19.90;77.60
78315;SHT31;68596;52.080;4.662;2023-07-31T02:08:03;19.89;77.40
78315;SHT31;68596;52.080;4.662;2023-07-31T02:10:47;19.90;77.41
78315;SHT31;68596;52.080;4.662;2023-07-31T02:13:31;19.93;77.52
78315;SHT31;68596;52.080;4.662;2023-07-31T02:16:15;19.90;77.47
78315;SHT31;68596;52.080;4.662;2023-07-31T02:18:59;19.90;77.31
78315;SHT31;68596;52.080;4.662;2023-07-31T02:21:44;19.90;77.41
78315;SHT31;68596;52.080;4.662;2023-07-31T02:24:28;19.90;77.33
78315;SHT31;68596;52.080;4.662;2023-07-31T02:27:12;19.93;77.27
78315;SHT31;68596;52.080;4.662;2023-07-31T02:29:56;19.95;77.31
78315;SHT31;68596;52.080;4.662;2023-07-31T02:32:43;19.92;77.36
78315;SHT31;68596;52.080;4.662;2023-07-31T02:35:27;19.92;77.30
78315;SHT31;68596;52.080;4.662;2023-07-31T02:38:11;19.88;77.48
78315;SHT31;68596;52.080;4.662;2023-07-31T02:40:55;19.88;77.22
78315;SHT31;68596;52.080;4.662;2023-07-31T02:43:39;19.89;77.23
78315;SHT31;68596;52.080;4.662;2023-07-31T02:46:23;19.89;77.31
78315;SHT31;68596;52.080;4.662;2023-07-31T02:49:08;19.88;77.30
78315;SHT31;68596;52.080;4.662;2023-07-31T02:51:52;19.90;77.33
78315;SHT31;68596;52.080;4.662;2023-07-31T02:54:36;19.86;76.92
78315;SHT31;68596;52.080;4.662;2023-07-31T02:57:20;19.88;76.77
78315;SHT31;68596;52.080;4.662;2023-07-31T03:00:05;19.83;76.86
78315;SHT31;68596;52.080;4.662;2023-07-31T03:02:50;19.79;76.83
78315;SHT31;68596;52.080;4.662;2023-07-31T03:05:34;19.83;76.65
78315;SHT31;68596;52.080;4.662;2023-07-31T03:08:18;19.82;76.77
78315;SHT31;68596;52.080;4.662;2023-07-31T03:11:03;19.79;76.70
78315;SHT31;68596;52.080;4.662;2023-07-31T03:13:47;19.77;76.73
78315;SHT31;68596;52.080;4.662;2023-07-31T03:16:31;19.78;76.57
78315;SHT31;68596;52.080;4.662;2023-07-31T03:19:15;19.75;76.64
78315;SHT31;68596;52.080;4.662;2023-07-31T03:22:00;19.77;76.67
78315;SHT31;68596;52.080;4.662;2023-07-31T03:24:44;19.74;76.64
78315;SHT31;68596;52.080;4.662;2023-07-31T03:27:28;19.77;76.66
78315;SHT31;68596;52.080;4.662;2023-07-31T03:30:12;19.78;76.78
78315;SHT31;68596;52.080;4.662;2023-07-31T03:32:56;19.78;76.65
78315;SHT31;68596;52.080;4.662;2023-07-31T03:35:40;19.77;76.69
78315;SHT31;68596;52.080;4.662;2023-07-31T03:38:24;19.77;76.85
78315;SHT31;68596;52.080;4.662;2023-07-31T03:41:08;19.75;76.78
78315;SHT31;68596;52.080;4.662;2023-07-31T03:43:54;19.72;76.87
78315;SHT31;68596;52.080;4.662;2023-07-31T03:46:41;19.71;76.93
78315;SHT31;68596;52.080;4.662;2023-07-31T03:49:25;19.71;77.11
78315;SHT31;68596;52.080;4.662;2023-07-31T03:52:09;19.69;76.87
78315;SHT31;68596;52.080;4.662;2023-07-31T03:54:53;19.72;77.02
78315;SHT31;68596;52.080;4.662;2023-07-31T03:57:37;19.72;76.84
78315;SHT31;68596;52.080;4.662;2023-07-31T04:00:21;19.72;76.86
78315;SHT31;68596;52.080;4.662;2023-07-31T04:03:07;19.72;77.00
78315;SHT31;68596;52.080;4.662;2023-07-31T04:05:51;19.68;77.13
78315;SHT31;68596;52.080;4.662;2023-07-31T04:08:35;19.69;77.14
78315;SHT31;68596;52.080;4.662;2023-07-31T04:11:19;19.69;77.15
78315;SHT31;68596;52.080;4.662;2023-07-31T04:14:03;19.67;77.27
78315;SHT31;68596;52.080;4.662;2023-07-31T04:16:47;19.67;77.35
78315;SHT31;68596;52.080;4.662;2023-07-31T04:19:31;19.65;77.40
78315;SHT31;68596;52.080;4.662;2023-07-31T04:22:17;19.67;77.53
78315;SHT31;68596;52.080;4.662;2023-07-31T04:25:01;19.64;77.59
78315;SHT31;68596;52.080;4.662;2023-07-31T04:27:45;19.62;77.72
78315;SHT31;68596;52.080;4.662;2023-07-31T04:30:29;19.62;77.73
78315;SHT31;68596;52.080;4.662;2023-07-31T04:33:13;19.61;77.96
78315;SHT31;68596;52.080;4.662;2023-07-31T04:35:59;19.55;78.01
78315;SHT31;68596;52.080;4.662;2023-07-31T04:38:43;19.50;78.28
78315;SHT31;68596;52.080;4.662;2023-07-31T04:41:27;19.39;78.19
78315;SHT31;68596;52.080;4.662;2023-07-31T04:44:11;19.35;78.53
78315;SHT31;68596;52.080;4.662;2023-07-31T04:46:55;19.30;78.51
78315;SHT31;68596;52.080;4.662;2023-07-31T04:49:39;19.26;78.55
78315;SHT31;68596;52.080;4.662;2023-07-31T04:52:23;19.20;78.94
78315;SHT31;68596;52.080;4.662;2023-07-31T04:55:08;19.20;78.83
78315;SHT31;68596;52.080;4.662;2023-07-31T04:57:52;19.18;78.93
78315;SHT31;68596;52.080;4.662;2023-07-31T05:00:37;19.16;78.83
78315;SHT31;68596;52.080;4.662;2023-07-31T05:03:21;19.14;78.90
78315;SHT31;68596;52.080;4.662;2023-07-31T05:06:05;19.18;78.79
78315;SHT31;68596;52.080;4.662;2023-07-31T05:08:49;19.23;78.68
78315;SHT31;68596;52.080;4.662;2023-07-31T05:11:33;19.16;78.87
78315;SHT31;68596;52.080;4.662;2023-07-31T05:14:17;19.14;78.74
78315;SHT31;68596;52.080;4.662;2023-07-31T05:17:02;19.16;78.92
78315;SHT31;68596;52.080;4.662;2023-07-31T05:19:47;19.13;78.89
78315;SHT31;68596;52.080;4.662;2023-07-31T05:22:31;19.11;78.84
78315;SHT31;68596;52.080;4.662;2023-07-31T05:25:15;19.11;78.75
78315;SHT31;68596;52.080;4.662;2023-07-31T05:27:59;19.10;78.89
78315;SHT31;68596;52.080;4.662;2023-07-31T05:30:44;19.08;78.91
78315;SHT31;68596;52.080;4.662;2023-07-31T05:33:28;19.04;79.10
78315;SHT31;68596;52.080;4.662;2023-07-31T05:36:13;19.06;79.17
78315;SHT31;68596;52.080;4.662;2023-07-31T05:38:57;19.02;79.24
78315;SHT31;68596;52.080;4.662;2023-07-31T05:41:41;18.97;79.44
78315;SHT31;68596;52.080;4.662;2023-07-31T05:44:25;18.96;79.80
78315;SHT31;68596;52.080;4.662;2023-07-31T05:47:09;18.96;79.58
78315;SHT31;68596;52.080;4.662;2023-07-31T05:49:54;18.99;79.41
78315;SHT31;68596;52.080;4.662;2023-07-31T05:52:37;19.03;79.57
78315;SHT31;68596;52.080;4.662;2023-07-31T05:55:22;19.07;79.29
78315;SHT31;68596;52.080;4.662;2023-07-31T05:58:07;19.10;79.56
78315;SHT31;68596;52.080;4.662;2023-07-31T06:00:51;19.14;79.46
78315;SHT31;68596;52.080;4.662;2023-07-31T06:03:35;19.13;79.80
78315;SHT31;68596;52.080;4.662;2023-07-31T06:06:19;19.14;79.53
78315;SHT31;68596;52.080;4.662;2023-07-31T06:09:03;19.16;79.65
78315;SHT31;68596;52.080;4.662;2023-07-31T06:11:48;19.17;79.43
78315;SHT31;68596;52.080;4.662;2023-07-31T06:14:33;19.24;79.39
78315;SHT31;68596;52.080;4.662;2023-07-31T06:17:17;19.24;79.38
78315;SHT31;68596;52.080;4.662;2023-07-31T06:20:06;19.27;79.65
78315;SHT31;68596;52.080;4.662;2023-07-31T06:22:50;19.28;79.17
78315;SHT31;68596;52.080;4.662;2023-07-31T06:25:34;19.32;79.24
78315;SHT31;68596;52.080;4.662;2023-07-31T06:28:18;19.32;79.15
78315;SHT31;68596;52.080;4.662;2023-07-31T06:31:03;19.35;79.17
78315;SHT31;68596;52.080;4.662;2023-07-31T06:33:48;19.37;79.23
78315;SHT31;68596;52.080;4.662;2023-07-31T06:36:33;19.39;79.34
78315;SHT31;68596;52.080;4.662;2023-07-31T06:39:17;19.44;79.63
78315;SHT31;68596;52.080;4.662;2023-07-31T06:42:01;19.38;79.68
78315;SHT31;68596;52.080;4.662;2023-07-31T06:44:45;19.38;80.04
78315;SHT31;68596;52.080;4.662;2023-07-31T06:47:29;19.37;79.94
78315;SHT31;68596;52.080;4.662;2023-07-31T06:50:13;19.37;79.65
78315;SHT31;68596;52.080;4.662;2023-07-31T06:52:57;19.38;79.90
78315;SHT31;68596;52.080;4.662;2023-07-31T06:55:42;19.41;79.57
78315;SHT31;68596;52.080;4.662;2023-07-31T06:58:26;19.41;79.72
78315;SHT31;68596;52.080;4.662;2023-07-31T07:01:10;19.43;79.75
78315;SHT31;68596;52.080;4.662;2023-07-31T07:03:54;19.43;79.91
78315;SHT31;68596;52.080;4.662;2023-07-31T07:06:39;19.41;79.85
78315;SHT31;68596;52.080;4.662;2023-07-31T07:09:23;19.44;79.83
78315;SHT31;68596;52.080;4.662;2023-07-31T07:12:07;19.48;79.96
78315;SHT31;68596;52.080;4.662;2023-07-31T07:14:52;19.48;79.78
78315;SHT31;68596;52.080;4.662;2023-07-31T07:17:37;19.53;79.98
78315;SHT31;68596;52.080;4.662;2023-07-31T07:20:21;19.54;79.78
78315;SHT31;68596;52.080;4.662;2023-07-31T07:23:05;19.54;79.70
78315;SHT31;68596;52.080;4.662;2023-07-31T07:25:49;19.59;79.87
78315;SHT31;68596;52.080;4.662;2023-07-31T07:28:35;19.59;79.96
78315;SHT31;68596;52.080;4.662;2023-07-31T07:31:21;19.61;79.78
78315;SHT31;68596;52.080;4.662;2023-07-31T07:34:05;19.57;80.01
78315;SHT31;68596;52.080;4.662;2023-07-31T07:36:49;19.59;79.85
78315;SHT31;68596;52.080;4.662;2023-07-31T07:39:33;19.64;80.03
78315;SHT31;68596;52.080;4.662;2023-07-31T07:42:17;19.67;79.75
78315;SHT31;68596;52.080;4.662;2023-07-31T07:45:01;19.68;80.07
78315;SHT31;68596;52.080;4.662;2023-07-31T07:47:47;19.69;79.90
78315;SHT31;68596;52.080;4.662;2023-07-31T07:50:31;19.72;80.02
78315;SHT31;68596;52.080;4.662;2023-07-31T07:53:16;19.75;79.82
78315;SHT31;68596;52.080;4.662;2023-07-31T07:56:00;19.77;79.78
78315;SHT31;68596;52.080;4.662;2023-07-31T07:58:44;19.78;79.83
78315;SHT31;68596;52.080;4.662;2023-07-31T08:01:28;19.81;79.83
78315;SHT31;68596;52.080;4.662;2023-07-31T08:04:12;19.83;79.76
78315;SHT31;68596;52.080;4.662;2023-07-31T08:06:56;19.86;80.01
78315;SHT31;68596;52.080;4.662;2023-07-31T08:09:40;19.89;79.68
78315;SHT31;68596;52.080;4.662;2023-07-31T08:12:25;19.89;79.67
78315;SHT31;68596;52.080;4.662;2023-07-31T08:15:09;19.92;80.06
78315;SHT31;68596;52.080;4.662;2023-07-31T08:17:53;19.92;80.08
78315;SHT31;68596;52.080;4.662;2023-07-31T08:20:37;19.93;79.84
78315;SHT31;68596;52.080;4.662;2023-07-31T08:23:21;19.98;80.03
78315;SHT31;68596;52.080;4.662;2023-07-31T08:26:14;19.99;80.04
78315;SHT31;68596;52.080;4.662;2023-07-31T08:28:58;20.02;79.86
78315;SHT31;68596;52.080;4.662;2023-07-31T08:31:42;20.04;79.74
78315;SHT31;68596;52.080;4.662;2023-07-31T08:34:26;20.05;79.72
78315;SHT31;68596;52.080;4.662;2023-07-31T08:37:10;20.08;79.76
78315;SHT31;68596;52.080;4.662;2023-07-31T08:39:55;20.06;79.77
78315;SHT31;68596;52.080;4.662;2023-07-31T08:42:47;20.08;79.83
78315;SHT31;68596;52.080;4.662;2023-07-31T08:45:33;20.08;79.78
78315;SHT31;68596;52.080;4.662;2023-07-31T08:48:17;20.10;79.81
78315;SHT31;68596;52.080;4.662;2023-07-31T08:51:04;20.12;79.87
78315;SHT31;68596;52.080;4.662;2023-07-31T08:53:48;20.13;79.63
78315;SHT31;68596;52.080;4.662;2023-07-31T08:56:33;20.13;79.55
78315;SHT31;68596;52.080;4.662;2023-07-31T08:59:20;20.16;79.79
78315;SHT31;68596;52.080;4.662;2023-07-31T09:02:08;20.18;79.84
78315;SHT31;68596;52.080;4.662;2023-07-31T09:04:52;20.20;79.64
78315;SHT31;68596;52.080;4.662;2023-07-31T09:07:38;20.22;79.73
78315;SHT31;68596;52.080;4.662;2023-07-31T09:10:22;20.20;79.68
78315;SHT31;68596;52.080;4.662;2023-07-31T09:13:06;20.22;79.59
78315;SHT31;68596;52.080;4.662;2023-07-31T09:15:50;20.23;79.59
78315;SHT31;68596;52.080;4.662;2023-07-31T09:18:53;20.23;79.65
78315;SHT31;68596;52.080;4.662;2023-07-31T09:21:48;20.25;79.83
78315;SHT31;68596;52.080;4.662;2023-07-31T09:24:34;20.26;79.55
78315;SHT31;68596;52.080;4.662;2023-07-31T09:27:19;20.26;79.42
78315;SHT31;68596;52.080;4.662;2023-07-31T09:30:03;20.32;79.46
78315;SHT31;68596;52.080;4.662;2023-07-31T09:32:50;20.30;79.72
78315;SHT31;68596;52.080;4.662;2023-07-31T09:35:35;20.33;79.70
78315;SHT31;68596;52.080;4.662;2023-07-31T09:38:21;20.34;79.51
78315;SHT31;68596;52.080;4.662;2023-07-31T09:41:05;20.39;79.72
78315;SHT31;68596;52.080;4.662;2023-07-31T09:43:55;20.39;79.71
78315;SHT31;68596;52.080;4.662;2023-07-31T09:46:39;20.41;79.74
78315;SHT31;68596;52.080;4.662;2023-07-31T09:49:25;20.39;79.73
78315;SHT31;68596;52.080;4.662;2023-07-31T09:52:12;20.41;79.50
78315;SHT31;68596;52.080;4.662;2023-07-31T09:54:56;20.44;79.57
78315;SHT31;68596;52.080;4.662;2023-07-31T09:57:42;20.44;79.56
78315;SHT31;68596;52.080;4.662;2023-07-31T10:00:30;20.47;79.78
78315;SHT31;68596;52.080;4.662;2023-07-31T10:03:15;20.44;79.80
78315;SHT31;68596;52.080;4.662;2023-07-31T10:06:03;20.46;79.65
78315;SHT31;68596;52.080;4.662;2023-07-31T10:08:52;20.44;79.73
78315;SHT31;68596;52.080;4.662;2023-07-31T10:11:41;20.49;79.79
78315;SHT31;68596;52.080;4.662;2023-07-31T10:14:30;20.49;80.01
78315;SHT31;68596;52.080;4.662;2023-07-31T10:17:17;20.50;79.99
78315;SHT31;68596;52.080;4.662;2023-07-31T10:20:04;20.49;80.13
78315;SHT31;68596;52.080;4.662;2023-07-31T10:22:51;20.54;80.01
78315;SHT31;68596;52.080;4.662;2023-07-31T10:25:37;20.56;79.91
78315;SHT31;68596;52.080;4.662;2023-07-31T10:28:22;20.63;79.69
78315;SHT31;68596;52.080;4.662;2023-07-31T10:31:07;20.63;79.78
78315;SHT31;68596;52.080;4.662;2023-07-31T10:33:54;20.64;79.66
78315;SHT31;68596;52.080;4.662;2023-07-31T10:36:39;20.69;79.47
78315;SHT31;68596;52.080;4.662;2023-07-31T10:39:37;20.67;79.40
78315;SHT31;68596;52.080;4.662;2023-07-31T10:42:46;20.70;79.26
78315;SHT31;68596;52.080;4.662;2023-07-31T10:48:16;20.77;79.31
78315;SHT31;68596;52.080;4.662;2023-07-31T10:51:00;20.74;79.33
78315;SHT31;68596;52.080;4.662;2023-07-31T10:53:44;20.74;79.44
78315;SHT31;68596;52.080;4.662;2023-07-31T10:56:37;20.79;79.33
78315;SHT31;68596;52.080;4.662;2023-07-31T10:59:26;20.79;79.59
78315;SHT31;68596;52.080;4.662;2023-07-31T11:02:26;20.81;79.31
78315;SHT31;68596;52.080;4.662;2023-07-31T11:05:13;20.83;79.35
78315;SHT31;68596;52.080;4.662;2023-07-31T11:07:57;20.80;79.28
78315;SHT31;68596;52.080;4.662;2023-07-31T11:10:43;20.83;79.40
78315;SHT31;68596;52.080;4.662;2023-07-31T11:13:54;20.84;79.28
78315;SHT31;68596;52.080;4.662;2023-07-31T11:16:41;20.85;79.14
78315;SHT31;68596;52.080;4.662;2023-07-31T11:19:25;20.88;79.37
78315;SHT31;68596;52.080;4.662;2023-07-31T11:22:10;20.88;79.12
78315;SHT31;68596;52.080;4.662;2023-07-31T11:24:54;20.90;79.11
78315;SHT31;68596;52.080;4.662;2023-07-31T11:27:39;20.93;79.12
78315;SHT31;68596;52.080;4.662;2023-07-31T11:30:24;20.94;79.42
78315;SHT31;68596;52.080;4.662;2023-07-31T11:33:11;20.94;79.16
78315;SHT31;68596;52.080;4.662;2023-07-31T11:35:56;20.97;79.45
78315;SHT31;68596;52.080;4.662;2023-07-31T11:38:40;21.00;79.19
78315;SHT31;68596;52.080;4.662;2023-07-31T11:41:24;21.01;79.03
78315;SHT31;68596;52.080;4.662;2023-07-31T11:44:09;21.02;79.03
78315;SHT31;68596;52.080;4.662;2023-07-31T11:46:56;21.01;78.95
78315;SHT31;68596;52.080;4.662;2023-07-31T11:49:41;21.02;79.12
78315;SHT31;68596;52.080;4.662;2023-07-31T11:52:25;21.02;78.94
78315;SHT31;68596;52.080;4.662;2023-07-31T11:55:12;21.05;78.98
78315;SHT31;68596;52.080;4.662;2023-07-31T11:57:58;21.02;78.82
78315;SHT31;68596;52.080;4.662;2023-07-31T12:00:43;21.04;78.86
78315;SHT31;68596;52.080;4.662;2023-07-31T12:03:28;21.05;78.89
78315;SHT31;68596;52.080;4.662;2023-07-31T12:06:13;21.01;78.70
78315;SHT31;68596;52.080;4.662;2023-07-31T12:09:04;21.02;78.87
78315;SHT31;68596;52.080;4.662;2023-07-31T12:11:49;21.02;78.79
78315;SHT31;68596;52.080;4.662;2023-07-31T12:14:33;21.04;78.73
78315;SHT31;68596;52.080;4.662;2023-07-31T12:17:19;21.07;78.78
78315;SHT31;68596;52.080;4.662;2023-07-31T12:20:05;21.08;78.90
78315;SHT31;68596;52.080;4.662;2023-07-31T12:22:49;21.05;78.63
78315;SHT31;68596;52.080;4.662;2023-07-31T12:25:33;21.07;78.73
78315;SHT31;68596;52.080;4.662;2023-07-31T12:28:22;21.08;78.74
78315;SHT31;68596;52.080;4.662;2023-07-31T12:31:13;21.08;78.89
78315;SHT31;68596;52.080;4.662;2023-07-31T12:33:58;21.07;78.75
78315;SHT31;68596;52.080;4.662;2023-07-31T12:36:42;21.08;78.80
78315;SHT31;68596;52.080;4.662;2023-07-31T12:39:26;21.08;78.73
78315;SHT31;68596;52.080;4.662;2023-07-31T12:42:10;21.11;78.79
78315;SHT31;68596;52.080;4.662;2023-07-31T12:44:54;21.11;78.91
78315;SHT31;68596;52.080;4.662;2023-07-31T12:47:38;21.12;78.68
78315;SHT31;68596;52.080;4.662;2023-07-31T12:50:22;21.15;78.87
78315;SHT31;68596;52.080;4.662;2023-07-31T12:53:07;21.21;79.08
78315;SHT31;68596;52.080;4.662;2023-07-31T12:55:51;21.22;79.09
78315;SHT31;68596;52.080;4.662;2023-07-31T12:58:35;21.28;78.94
78315;SHT31;68596;52.080;4.662;2023-07-31T13:01:19;21.30;79.06
78315;SHT31;68596;52.080;4.662;2023-07-31T13:04:04;21.30;78.91
78315;SHT31;68596;52.080;4.662;2023-07-31T13:06:48;21.32;78.76
78315;SHT31;68596;52.080;4.662;2023-07-31T13:09:32;21.34;78.67
78315;SHT31;68596;52.080;4.662;2023-07-31T13:12:16;21.31;78.85
78315;SHT31;68596;52.080;4.662;2023-07-31T13:15:00;21.30;78.99
78315;SHT31;68596;52.080;4.662;2023-07-31T13:17:45;21.31;78.97
78315;SHT31;68596;52.080;4.662;2023-07-31T13:20:29;21.32;78.98
78315;SHT31;68596;52.080;4.662;2023-07-31T13:23:14;21.32;79.03
78315;SHT31;68596;52.080;4.662;2023-07-31T13:25:58;21.31;79.11
78315;SHT31;68596;52.080;4.662;2023-07-31T13:28:42;21.34;79.04
78315;SHT31;68596;52.080;4.662;2023-07-31T13:31:26;21.34;79.23
78315;SHT31;68596;52.080;4.662;2023-07-31T13:34:10;21.37;79.70
78315;SHT31;68596;52.080;4.662;2023-07-31T13:36:55;21.32;79.33
78315;SHT31;68596;52.080;4.662;2023-07-31T13:39:40;21.32;79.35
78315;SHT31;68596;52.080;4.662;2023-07-31T13:42:24;21.37;79.57
78315;SHT31;68596;52.080;4.662;2023-07-31T13:45:08;21.41;79.49
78315;SHT31;68596;52.080;4.662;2023-07-31T13:47:52;21.41;79.11
78315;SHT31;68596;52.080;4.662;2023-07-31T13:50:36;21.38;79.35
78315;SHT31;68596;52.080;4.662;2023-07-31T13:53:20;21.41;79.47
78315;SHT31;68596;52.080;4.662;2023-07-31T13:56:04;21.39;79.38
78315;SHT31;68596;52.080;4.662;2023-07-31T13:58:49;21.39;79.68
78315;SHT31;68596;52.080;4.662;2023-07-31T14:01:33;21.35;79.41
78315;SHT31;68596;52.080;4.662;2023-07-31T14:04:17;21.35;79.24
78315;SHT31;68596;52.080;4.662;2023-07-31T14:07:05;21.35;79.05
78315;SHT31;68596;52.080;4.662;2023-07-31T14:09:49;21.34;79.20
78315;SHT31;68596;52.080;4.662;2023-07-31T14:12:33;21.35;79.40
78315;SHT31;68596;52.080;4.662;2023-07-31T14:15:17;21.34;79.12
78315;SHT31;68596;52.080;4.662;2023-07-31T14:18:01;21.32;79.34
78315;SHT31;68596;52.080;4.662;2023-07-31T14:20:46;21.34;79.26
78315;SHT31;68596;52.080;4.662;2023-07-31T14:23:30;21.30;79.33
78315;SHT31;68596;52.080;4.662;2023-07-31T14:26:14;21.31;79.10
78315;SHT31;68596;52.080;4.662;2023-07-31T14:28:58;21.30;79.38
78315;SHT31;68596;52.080;4.662;2023-07-31T14:31:42;21.28;79.32
78315;SHT31;68596;52.080;4.662;2023-07-31T14:34:27;21.24;79.30
78315;SHT31;68596;52.080;4.662;2023-07-31T14:37:10;21.27;79.37
78315;SHT31;68596;52.080;4.662;2023-07-31T14:39:54;21.27;79.36
78315;SHT31;68596;52.080;4.662;2023-07-31T14:42:40;21.30;79.31
78315;SHT31;68596;52.080;4.662;2023-07-31T14:45:24;21.30;79.19
78315;SHT31;68596;52.080;4.662;2023-07-31T14:48:08;21.30;79.45
78315;SHT31;68596;52.080;4.662;2023-07-31T14:50:52;21.25;79.18
78315;SHT31;68596;52.080;4.662;2023-07-31T14:53:37;21.25;79.27
78315;SHT31;68596;52.080;4.662;2023-07-31T14:56:21;21.25;79.40
78315;SHT31;68596;52.080;4.662;2023-07-31T14:59:05;21.25;79.40
78315;SHT31;68596;52.080;4.662;2023-07-31T15:01:51;21.28;79.55
78315;SHT31;68596;52.080;4.662;2023-07-31T15:04:36;21.27;79.49
78315;SHT31;68596;52.080;4.662;2023-07-31T15:07:20;21.28;79.43
78315;SHT31;68596;52.080;4.662;2023-07-31T15:10:05;21.27;79.47
78315;SHT31;68596;52.080;4.662;2023-07-31T15:12:50;21.24;79.60
78315;SHT31;68596;52.080;4.662;2023-07-31T15:15:34;21.27;79.67
78315;SHT31;68596;52.080;4.662;2023-07-31T15:18:18;21.22;79.60
78315;SHT31;68596;52.080;4.662;2023-07-31T15:21:02;21.22;79.80
78315;SHT31;68596;52.080;4.662;2023-07-31T15:23:46;21.27;79.70
78315;SHT31;68596;52.080;4.662;2023-07-31T15:26:30;21.21;79.60
78315;SHT31;68596;52.080;4.662;2023-07-31T15:29:14;21.20;79.46
78315;SHT31;68596;52.080;4.662;2023-07-31T15:32:04;21.20;79.57
78315;SHT31;68596;52.080;4.662;2023-07-31T15:34:49;21.14;79.61
78315;SHT31;68596;52.080;4.662;2023-07-31T15:37:33;21.15;79.47
78315;SHT31;68596;52.080;4.662;2023-07-31T15:40:17;21.11;79.50
78315;SHT31;68596;52.080;4.662;2023-07-31T15:43:01;21.12;79.47
78315;SHT31;68596;52.080;4.662;2023-07-31T15:45:46;21.12;79.52
78315;SHT31;68596;52.080;4.662;2023-07-31T15:48:30;21.17;79.45
78315;SHT31;68596;52.080;4.662;2023-07-31T15:51:15;21.15;79.25
78315;SHT31;68596;52.080;4.662;2023-07-31T15:53:59;21.14;79.26
78315;SHT31;68596;52.080;4.662;2023-07-31T15:56:43;21.14;79.19
78315;SHT31;68596;52.080;4.662;2023-07-31T15:59:27;21.11;78.92
78315;SHT31;68596;52.080;4.662;2023-07-31T16:02:11;21.07;78.70
78315;SHT31;68596;52.080;4.662;2023-07-31T16:04:55;21.04;78.79
78315;SHT31;68596;52.080;4.662;2023-07-31T16:07:39;21.01;78.90
78315;SHT31;68596;52.080;4.662;2023-07-31T16:10:23;21.01;78.88
78315;SHT31;68596;52.080;4.662;2023-07-31T16:13:08;20.98;78.91
78315;SHT31;68596;52.080;4.662;2023-07-31T16:15:52;20.98;78.99
78315;SHT31;68596;52.080;4.662;2023-07-31T16:18:36;21.01;78.95
78315;SHT31;68596;52.080;4.662;2023-07-31T16:21:20;20.98;78.86
78315;SHT31;68596;52.080;4.662;2023-07-31T16:24:04;21.01;79.13
78315;SHT31;68596;52.080;4.662;2023-07-31T16:26:48;21.01;79.52
78315;SHT31;68596;52.080;4.662;2023-07-31T16:29:32;21.00;79.22
78315;SHT31;68596;52.080;4.662;2023-07-31T16:32:16;21.00;79.15
78315;SHT31;68596;52.080;4.662;2023-07-31T16:35:00;20.98;79.24
78315;SHT31;68596;52.080;4.662;2023-07-31T16:37:45;20.98;79.24
78315;SHT31;68596;52.080;4.662;2023-07-31T16:40:30;21.02;79.48
78315;SHT31;68596;52.080;4.662;2023-07-31T16:43:14;21.00;79.39
78315;SHT31;68596;52.080;4.662;2023-07-31T16:45:59;21.00;79.37
78315;SHT31;68596;52.080;4.662;2023-07-31T16:48:43;21.02;79.33
78315;SHT31;68596;52.080;4.662;2023-07-31T16:51:27;21.04;79.14
78315;SHT31;68596;52.080;4.662;2023-07-31T16:54:11;21.08;79.30
78315;SHT31;68596;52.080;4.662;2023-07-31T16:56:55;21.10;79.22
78315;SHT31;68596;52.080;4.662;2023-07-31T16:59:39;21.08;79.39
78315;SHT31;68596;52.080;4.662;2023-07-31T17:02:23;21.10;79.29
78315;SHT31;68596;52.080;4.662;2023-07-31T17:05:08;21.08;79.27
78315;SHT31;68596;52.080;4.662;2023-07-31T17:07:52;21.08;79.13
78315;SHT31;68596;52.080;4.662;2023-07-31T17:10:37;21.08;79.20
78315;SHT31;68596;52.080;4.662;2023-07-31T17:13:21;21.10;79.14
78315;SHT31;68596;52.080;4.662;2023-07-31T17:16:06;21.05;79.11
78315;SHT31;68596;52.080;4.662;2023-07-31T17:18:51;21.07;79.20
78315;SHT31;68596;52.080;4.662;2023-07-31T17:21:35;21.05;79.07
78315;SHT31;68596;52.080;4.662;2023-07-31T17:24:20;21.07;79.24
78315;SHT31;68596;52.080;4.662;2023-07-31T17:27:04;21.04;79.25